createdAt,value
2018-04-15T00:00:33.088Z,1010.11
2018-04-15T00:01:08.733Z,1010.07
2018-04-15T00:01:44.144Z,1010.03
2018-04-15T00:02:19.583Z,1010.04
2018-04-15T00:02:54.890Z,1010.03
2018-04-15T00:03:30.370Z,1010.02
2018-04-15T00:04:05.939Z,1009.99
2018-04-15T00:04:41.201Z,1010.03
2018-04-15T00:05:16.737Z,1009.99
2018-04-15T00:05:52.414Z,1009.97
2018-04-15T00:06:27.798Z,1009.96
2018-04-15T00:07:03.378Z,1009.93
2018-04-15T00:07:39.019Z,1009.95
2018-04-15T00:08:14.395Z,1009.90
2018-04-15T00:08:49.723Z,1009.90
2018-04-15T00:09:26.178Z,1009.91
2018-04-15T00:10:01.707Z,1009.87
2018-04-15T00:10:37.041Z,1009.89
2018-04-15T00:11:12.581Z,1009.84
2018-04-15T00:11:48.144Z,1009.78
2018-04-15T00:12:23.576Z,1009.77
2018-04-15T00:13:00.426Z,1009.79
2018-04-15T00:13:35.625Z,1009.75
2018-04-15T00:14:10.841Z,1009.77
2018-04-15T00:14:46.109Z,1009.73
2018-04-15T00:15:21.675Z,1009.72
2018-04-15T00:15:57.210Z,1009.77
2018-04-15T00:16:32.677Z,1009.72
2018-04-15T00:17:08.214Z,1009.75
2018-04-15T00:17:43.766Z,1009.71
2018-04-15T00:18:18.973Z,1009.73
2018-04-15T00:18:54.564Z,1009.70
2018-04-15T00:19:29.780Z,1009.75
2018-04-15T00:20:05.150Z,1009.71
2018-04-15T00:20:40.733Z,1009.79
2018-04-15T00:21:15.908Z,1009.76
2018-04-15T00:21:51.305Z,1009.73
2018-04-15T00:22:26.928Z,1009.73
2018-04-15T00:23:02.450Z,1009.72
2018-04-15T00:23:37.782Z,1009.71
2018-04-15T00:24:12.989Z,1009.74
2018-04-15T00:24:49.476Z,1009.72
2018-04-15T00:25:24.910Z,1009.72
2018-04-15T00:26:00.451Z,1009.69
2018-04-15T00:26:37.050Z,1009.69
2018-04-15T00:27:12.426Z,1009.68
2018-04-15T00:27:47.850Z,1009.67
2018-04-15T00:28:23.184Z,1009.64
2018-04-15T00:28:58.520Z,1009.61
2018-04-15T00:29:34.100Z,1009.60
2018-04-15T00:30:09.466Z,1009.64
2018-04-15T00:30:47.565Z,1009.58
2018-04-15T00:31:22.889Z,1009.60
2018-04-15T00:31:58.647Z,1009.63
2018-04-15T00:32:33.800Z,1009.59
2018-04-15T00:33:09.252Z,1009.63
2018-04-15T00:33:45.172Z,1009.63
2018-04-15T00:34:20.447Z,1009.61
2018-04-15T00:34:55.878Z,1009.65
2018-04-15T00:35:31.230Z,1009.64
2018-04-15T00:36:06.571Z,1009.62
2018-04-15T00:36:42.284Z,1009.60
2018-04-15T00:37:17.768Z,1009.63
2018-04-15T00:37:53.247Z,1009.64
2018-04-15T00:38:28.960Z,1009.64
2018-04-15T00:39:04.385Z,1009.65
2018-04-15T00:39:40.101Z,1009.60
2018-04-15T00:40:15.512Z,1009.60
2018-04-15T00:40:52.042Z,1009.59
2018-04-15T00:41:27.251Z,1009.58
2018-04-15T00:42:02.430Z,1009.58
2018-04-15T00:42:38.099Z,1009.58
2018-04-15T00:43:13.643Z,1009.59
2018-04-15T00:43:50.924Z,1009.60
2018-04-15T00:44:26.220Z,1009.58
2018-04-15T00:45:01.591Z,1009.59
2018-04-15T00:45:37.148Z,1009.60
2018-04-15T00:46:12.677Z,1009.54
2018-04-15T00:46:47.691Z,1009.56
2018-04-15T00:47:22.992Z,1009.57
2018-04-15T00:47:58.819Z,1009.54
2018-04-15T00:48:33.981Z,1009.55
2018-04-15T00:49:09.317Z,1009.55
2018-04-15T00:49:44.785Z,1009.53
2018-04-15T00:50:20.027Z,1009.58
2018-04-15T00:50:55.468Z,1009.57
2018-04-15T00:51:30.871Z,1009.56
2018-04-15T00:52:06.488Z,1009.55
2018-04-15T00:52:45.033Z,1009.57
2018-04-15T00:53:20.454Z,1009.58
2018-04-15T00:53:55.711Z,1009.57
2018-04-15T00:54:30.980Z,1009.56
2018-04-15T00:55:06.464Z,1009.59
2018-04-15T00:55:41.912Z,1009.53
2018-04-15T00:56:17.328Z,1009.55
2018-04-15T00:56:52.762Z,1009.54
2018-04-15T00:57:28.219Z,1009.52
2018-04-15T00:58:03.645Z,1009.49
2018-04-15T00:58:38.888Z,1009.51
2018-04-15T00:59:14.373Z,1009.45
2018-04-15T00:59:49.936Z,1009.45
2018-04-15T01:00:25.702Z,1009.47
2018-04-15T01:01:01.331Z,1009.47
2018-04-15T01:01:36.474Z,1009.46
2018-04-15T01:02:12.173Z,1009.43
2018-04-15T01:02:47.824Z,1009.45
2018-04-15T01:03:23.310Z,1009.41
2018-04-15T01:03:58.448Z,1009.43
2018-04-15T01:04:33.936Z,1009.45
2018-04-15T01:05:09.376Z,1009.44
2018-04-15T01:05:45.789Z,1009.44
2018-04-15T01:06:20.850Z,1009.43
2018-04-15T01:06:56.784Z,1009.42
2018-04-15T01:07:32.069Z,1009.40
2018-04-15T01:08:07.187Z,1009.39
2018-04-15T01:08:42.597Z,1009.38
2018-04-15T01:09:17.923Z,1009.35
2018-04-15T01:09:53.192Z,1009.36
2018-04-15T01:10:28.734Z,1009.33
2018-04-15T01:11:04.208Z,1009.35
2018-04-15T01:11:39.647Z,1009.36
2018-04-15T01:12:15.306Z,1009.34
2018-04-15T01:12:50.719Z,1009.37
2018-04-15T01:13:26.282Z,1009.38
2018-04-15T01:14:01.630Z,1009.39
2018-04-15T01:14:37.131Z,1009.40
2018-04-15T01:15:12.499Z,1009.37
2018-04-15T01:15:49.826Z,1009.37
2018-04-15T01:16:25.044Z,1009.35
2018-04-15T01:17:00.602Z,1009.39
2018-04-15T01:17:36.122Z,1009.36
2018-04-15T01:18:11.486Z,1009.36
2018-04-15T01:18:47.032Z,1009.34
2018-04-15T01:19:22.367Z,1009.32
2018-04-15T01:19:57.698Z,1009.36
2018-04-15T01:20:33.183Z,1009.38
2018-04-15T01:21:08.403Z,1009.39
2018-04-15T01:21:43.670Z,1009.41
2018-04-15T01:22:18.988Z,1009.44
2018-04-15T01:22:54.417Z,1009.50
2018-04-15T01:23:29.897Z,1009.57
2018-04-15T01:24:05.231Z,1009.62
2018-04-15T01:24:41.750Z,1009.74
2018-04-15T01:25:17.013Z,1009.86
2018-04-15T01:25:52.835Z,1009.93
2018-04-15T01:26:28.402Z,1009.95
2018-04-15T01:27:03.964Z,1009.91
2018-04-15T01:27:39.302Z,1009.88
2018-04-15T01:28:14.832Z,1009.82
2018-04-15T01:28:50.051Z,1009.73
2018-04-15T01:29:25.486Z,1009.68
2018-04-15T01:30:01.254Z,1009.66
2018-04-15T01:30:37.010Z,1009.69
2018-04-15T01:31:12.548Z,1009.70
2018-04-15T01:31:47.884Z,1009.71
2018-04-15T01:32:23.626Z,1009.69
2018-04-15T01:32:58.830Z,1009.72
2018-04-15T01:33:34.289Z,1009.74
2018-04-15T01:34:09.622Z,1009.70
2018-04-15T01:34:45.076Z,1009.73
2018-04-15T01:35:20.471Z,1009.77
2018-04-15T01:35:56.423Z,1009.72
2018-04-15T01:36:31.773Z,1009.72
2018-04-15T01:37:07.306Z,1009.72
2018-04-15T01:37:42.611Z,1009.72
2018-04-15T01:38:18.067Z,1009.71
2018-04-15T01:38:53.421Z,1009.70
2018-04-15T01:39:28.793Z,1009.73
2018-04-15T01:40:04.138Z,1009.72
2018-04-15T01:40:40.708Z,1009.69
2018-04-15T01:41:16.168Z,1009.70
2018-04-15T01:41:51.573Z,1009.70
2018-04-15T01:42:27.205Z,1009.70
2018-04-15T01:43:02.542Z,1009.66
2018-04-15T01:43:38.067Z,1009.69
2018-04-15T01:44:13.209Z,1009.68
2018-04-15T01:44:53.951Z,1009.71
2018-04-15T01:45:29.582Z,1009.69
2018-04-15T01:46:05.225Z,1009.67
2018-04-15T01:46:40.500Z,1009.69
2018-04-15T01:47:15.871Z,1009.70
2018-04-15T01:47:51.421Z,1009.67
2018-04-15T01:48:27.233Z,1009.67
2018-04-15T01:49:02.468Z,1009.62
2018-04-15T01:49:38.428Z,1009.67
2018-04-15T01:50:13.791Z,1009.63
2018-04-15T01:50:50.353Z,1009.60
2018-04-15T01:51:26.190Z,1009.60
2018-04-15T01:52:01.549Z,1009.59
2018-04-15T01:52:36.929Z,1009.59
2018-04-15T01:53:12.173Z,1009.56
2018-04-15T01:53:48.010Z,1009.57
2018-04-15T01:54:23.457Z,1009.58
2018-04-15T01:54:59.207Z,1009.53
2018-04-15T01:55:34.579Z,1009.53
2018-04-15T01:56:09.969Z,1009.52
2018-04-15T01:56:45.473Z,1009.48
2018-04-15T01:57:20.759Z,1009.45
2018-04-15T01:57:56.127Z,1009.46
2018-04-15T01:58:31.594Z,1009.48
2018-04-15T01:59:07.041Z,1009.49
2018-04-15T01:59:42.517Z,1009.47
2018-04-15T02:00:17.852Z,1009.43
2018-04-15T02:00:53.186Z,1009.42
2018-04-15T02:01:28.549Z,1009.45
2018-04-15T02:02:03.953Z,1009.46
2018-04-15T02:02:39.401Z,1009.45
2018-04-15T02:03:14.720Z,1009.44
2018-04-15T02:03:50.152Z,1009.44
2018-04-15T02:04:27.627Z,1009.50
2018-04-15T02:05:03.031Z,1009.48
2018-04-15T02:05:38.697Z,1009.48
2018-04-15T02:06:13.950Z,1009.49
2018-04-15T02:06:49.526Z,1009.47
2018-04-15T02:07:25.166Z,1009.48
2018-04-15T02:08:00.603Z,1009.46
2018-04-15T02:08:35.955Z,1009.42
2018-04-15T02:09:11.213Z,1009.39
2018-04-15T02:09:47.573Z,1009.41
2018-04-15T02:10:23.105Z,1009.40
2018-04-15T02:10:58.935Z,1009.43
2018-04-15T02:11:34.158Z,1009.44
2018-04-15T02:12:09.951Z,1009.38
2018-04-15T02:12:45.512Z,1009.39
2018-04-15T02:13:20.853Z,1009.40
2018-04-15T02:13:56.506Z,1009.44
2018-04-15T02:14:32.106Z,1009.40
2018-04-15T02:15:07.672Z,1009.36
2018-04-15T02:15:43.291Z,1009.39
2018-04-15T02:16:19.050Z,1009.37
2018-04-15T02:16:54.407Z,1009.34
2018-04-15T02:17:29.991Z,1009.35
2018-04-15T02:18:05.163Z,1009.33
2018-04-15T02:18:40.813Z,1009.30
2018-04-15T02:19:16.660Z,1009.35
2018-04-15T02:19:52.372Z,1009.30
2018-04-15T02:20:27.806Z,1009.31
2018-04-15T02:21:03.042Z,1009.28
2018-04-15T02:21:38.571Z,1009.26
2018-04-15T02:22:13.825Z,1009.29
2018-04-15T02:22:49.265Z,1009.27
2018-04-15T02:23:24.511Z,1009.27
2018-04-15T02:23:59.926Z,1009.29
2018-04-15T02:24:35.565Z,1009.25
2018-04-15T02:25:11.292Z,1009.25
2018-04-15T02:25:47.165Z,1009.24
2018-04-15T02:26:22.680Z,1009.22
2018-04-15T02:26:58.137Z,1009.23
2018-04-15T02:27:33.647Z,1009.21
2018-04-15T02:28:08.933Z,1009.22
2018-04-15T02:28:45.052Z,1009.23
2018-04-15T02:29:20.386Z,1009.24
2018-04-15T02:29:55.820Z,1009.23
2018-04-15T02:30:30.995Z,1009.18
2018-04-15T02:31:06.413Z,1009.19
2018-04-15T02:31:41.877Z,1009.18
2018-04-15T02:32:17.173Z,1009.16
2018-04-15T02:32:52.356Z,1009.18
2018-04-15T02:33:27.785Z,1009.15
2018-04-15T02:34:04.065Z,1009.16
2018-04-15T02:34:39.591Z,1009.12
2018-04-15T02:35:15.073Z,1009.12
2018-04-15T02:35:52.296Z,1009.11
2018-04-15T02:36:27.334Z,1009.12
2018-04-15T02:37:02.986Z,1009.07
2018-04-15T02:37:38.352Z,1009.03
2018-04-15T02:38:13.692Z,1009.03
2018-04-15T02:38:49.474Z,1009.04
2018-04-15T02:39:24.598Z,1009.08
2018-04-15T02:39:59.951Z,1009.06
2018-04-15T02:40:35.252Z,1009.05
2018-04-15T02:41:11.216Z,1009.05
2018-04-15T02:41:46.958Z,1009.04
2018-04-15T02:42:22.291Z,1009.03
2018-04-15T02:42:57.745Z,1009.02
2018-04-15T02:43:33.064Z,1009.02
2018-04-15T02:44:09.102Z,1009.01
2018-04-15T02:44:44.644Z,1009.01
2018-04-15T02:45:20.077Z,1009.02
2018-04-15T02:45:57.712Z,1009.02
2018-04-15T02:46:33.130Z,1009.01
2018-04-15T02:47:08.476Z,1009.02
2018-04-15T02:47:43.777Z,1008.99
2018-04-15T02:48:19.463Z,1008.98
2018-04-15T02:48:55.207Z,1008.94
2018-04-15T02:49:30.733Z,1008.96
2018-04-15T02:50:06.343Z,1008.95
2018-04-15T02:50:41.669Z,1008.94
2018-04-15T02:51:17.098Z,1008.91
2018-04-15T02:51:52.526Z,1008.92
2018-04-15T02:52:27.855Z,1008.92
2018-04-15T02:53:03.649Z,1008.91
2018-04-15T02:53:39.153Z,1008.91
2018-04-15T02:54:14.623Z,1008.87
2018-04-15T02:54:49.865Z,1008.87
2018-04-15T02:55:25.295Z,1008.88
2018-04-15T02:56:00.523Z,1008.89
2018-04-15T02:56:36.103Z,1008.88
2018-04-15T02:57:11.436Z,1008.87
2018-04-15T02:57:46.680Z,1008.88
2018-04-15T02:58:22.105Z,1008.89
2018-04-15T02:58:57.521Z,1008.86
2018-04-15T02:59:32.944Z,1008.87
2018-04-15T03:00:08.160Z,1008.88
2018-04-15T03:00:46.895Z,1008.85
2018-04-15T03:01:24.066Z,1008.86
2018-04-15T03:01:59.288Z,1008.88
2018-04-15T03:02:34.724Z,1008.84
2018-04-15T03:03:10.088Z,1008.85
2018-04-15T03:03:45.439Z,1008.81
2018-04-15T03:04:21.063Z,1008.82
2018-04-15T03:04:56.388Z,1008.79
2018-04-15T03:05:31.820Z,1008.81
2018-04-15T03:06:08.682Z,1008.84
2018-04-15T03:06:44.587Z,1008.82
2018-04-15T03:07:19.925Z,1008.82
2018-04-15T03:07:55.527Z,1008.84
2018-04-15T03:08:30.703Z,1008.83
2018-04-15T03:09:06.047Z,1008.85
2018-04-15T03:09:42.304Z,1008.84
2018-04-15T03:10:17.823Z,1008.86
2018-04-15T03:10:56.364Z,1008.87
2018-04-15T03:11:31.975Z,1008.87
2018-04-15T03:12:07.324Z,1008.83
2018-04-15T03:12:43.215Z,1008.84
2018-04-15T03:13:18.486Z,1008.84
2018-04-15T03:13:55.588Z,1008.85
2018-04-15T03:14:30.960Z,1008.82
2018-04-15T03:15:06.298Z,1008.84
2018-04-15T03:15:44.134Z,1008.88
2018-04-15T03:16:19.972Z,1008.85
2018-04-15T03:16:56.424Z,1008.79
2018-04-15T03:17:31.551Z,1008.80
2018-04-15T03:18:07.265Z,1008.84
2018-04-15T03:18:42.421Z,1008.88
2018-04-15T03:19:18.058Z,1008.82
2018-04-15T03:19:53.470Z,1008.81
2018-04-15T03:20:28.737Z,1008.85
2018-04-15T03:21:03.956Z,1008.82
2018-04-15T03:21:39.412Z,1008.79
2018-04-15T03:22:14.642Z,1008.81
2018-04-15T03:22:51.381Z,1008.83
2018-04-15T03:23:26.911Z,1008.78
2018-04-15T03:24:02.557Z,1008.79
2018-04-15T03:24:40.147Z,1008.81
2018-04-15T03:25:15.391Z,1008.79
2018-04-15T03:25:50.713Z,1008.78
2018-04-15T03:26:25.943Z,1008.80
2018-04-15T03:27:02.071Z,1008.82
2018-04-15T03:27:38.794Z,1008.82
2018-04-15T03:28:14.104Z,1008.80
2018-04-15T03:28:52.413Z,1008.88
2018-04-15T03:29:27.879Z,1008.82
2018-04-15T03:30:03.235Z,1008.85
2018-04-15T03:30:40.263Z,1008.80
2018-04-15T03:31:18.629Z,1008.75
2018-04-15T03:31:53.888Z,1008.82
2018-04-15T03:32:29.237Z,1008.83
2018-04-15T03:33:04.550Z,1008.81
2018-04-15T03:33:40.670Z,1008.85
2018-04-15T03:34:16.019Z,1008.80
2018-04-15T03:34:51.453Z,1008.81
2018-04-15T03:35:27.702Z,1008.83
2018-04-15T03:36:03.038Z,1008.85
2018-04-15T03:36:41.444Z,1008.85
2018-04-15T03:37:21.213Z,1008.82
2018-04-15T03:37:59.633Z,1008.83
2018-04-15T03:38:38.315Z,1008.84
2018-04-15T03:39:16.833Z,1008.85
2018-04-15T03:39:52.294Z,1008.85
2018-04-15T03:40:27.912Z,1008.81
2018-04-15T03:41:09.563Z,1008.82
2018-04-15T03:41:49.235Z,1008.83
2018-04-15T03:42:24.474Z,1008.83
2018-04-15T03:42:59.796Z,1008.80
2018-04-15T03:43:35.141Z,1008.81
2018-04-15T03:44:12.476Z,1008.82
2018-04-15T03:44:48.721Z,1008.82
2018-04-15T03:45:24.033Z,1008.83
2018-04-15T03:46:02.712Z,1008.80
2018-04-15T03:46:39.150Z,1008.85
2018-04-15T03:47:14.604Z,1008.82
2018-04-15T03:47:50.306Z,1008.84
2018-04-15T03:48:27.475Z,1008.81
2018-04-15T03:49:02.892Z,1008.82
2018-04-15T03:49:38.566Z,1008.84
2018-04-15T03:50:13.800Z,1008.81
2018-04-15T03:50:51.685Z,1008.82
2018-04-15T03:51:26.978Z,1008.80
2018-04-15T03:52:02.439Z,1008.82
2018-04-15T03:52:37.972Z,1008.81
2018-04-15T03:53:13.540Z,1008.83
2018-04-15T03:53:48.798Z,1008.79
2018-04-15T03:54:24.048Z,1008.80
2018-04-15T03:54:59.572Z,1008.79
2018-04-15T03:55:35.535Z,1008.79
2018-04-15T03:56:10.853Z,1008.80
2018-04-15T03:56:49.479Z,1008.81
2018-04-15T03:57:24.580Z,1008.80
2018-04-15T03:57:59.796Z,1008.81
2018-04-15T03:58:35.311Z,1008.83
2018-04-15T03:59:10.381Z,1008.81
2018-04-15T03:59:45.709Z,1008.81
2018-04-15T04:00:21.225Z,1008.80
2018-04-15T04:00:56.461Z,1008.82
2018-04-15T04:01:31.889Z,1008.83
2018-04-15T04:02:07.402Z,1008.78
2018-04-15T04:02:42.833Z,1008.83
2018-04-15T04:03:18.156Z,1008.80
2018-04-15T04:03:53.694Z,1008.81
2018-04-15T04:04:29.022Z,1008.81
2018-04-15T04:05:04.380Z,1008.84
2018-04-15T04:05:39.622Z,1008.84
2018-04-15T04:06:14.836Z,1008.83
2018-04-15T04:06:50.129Z,1008.80
2018-04-15T04:07:25.460Z,1008.79
2018-04-15T04:08:00.567Z,1008.81
2018-04-15T04:08:36.028Z,1008.81
2018-04-15T04:09:11.512Z,1008.81
2018-04-15T04:09:46.858Z,1008.83
2018-04-15T04:10:22.293Z,1008.85
2018-04-15T04:10:57.440Z,1008.82
2018-04-15T04:11:32.677Z,1008.81
2018-04-15T04:12:08.019Z,1008.82
2018-04-15T04:12:43.538Z,1008.79
2018-04-15T04:13:18.882Z,1008.83
2018-04-15T04:13:54.285Z,1008.80
2018-04-15T04:14:30.104Z,1008.82
2018-04-15T04:15:05.509Z,1008.80
2018-04-15T04:15:40.861Z,1008.80
2018-04-15T04:16:16.080Z,1008.78
2018-04-15T04:16:51.232Z,1008.82
2018-04-15T04:17:26.566Z,1008.81
2018-04-15T04:18:02.109Z,1008.82
2018-04-15T04:18:37.509Z,1008.84
2018-04-15T04:19:13.395Z,1008.85
2018-04-15T04:19:48.720Z,1008.88
2018-04-15T04:20:24.098Z,1008.89
2018-04-15T04:21:00.383Z,1008.89
2018-04-15T04:21:35.811Z,1008.92
2018-04-15T04:22:11.223Z,1008.92
2018-04-15T04:22:46.569Z,1008.89
2018-04-15T04:23:21.783Z,1008.87
2018-04-15T04:23:57.144Z,1008.92
2018-04-15T04:24:32.696Z,1008.86
2018-04-15T04:25:08.046Z,1008.80
2018-04-15T04:25:43.692Z,1008.80
2018-04-15T04:26:19.138Z,1008.80
2018-04-15T04:26:54.351Z,1008.78
2018-04-15T04:27:29.812Z,1008.78
2018-04-15T04:28:05.340Z,1008.78
2018-04-15T04:28:40.687Z,1008.81
2018-04-15T04:29:16.115Z,1008.82
2018-04-15T04:29:51.477Z,1008.79
2018-04-15T04:30:26.883Z,1008.79
2018-04-15T04:31:03.620Z,1008.79
2018-04-15T04:31:38.734Z,1008.81
2018-04-15T04:32:14.161Z,1008.83
2018-04-15T04:32:49.801Z,1008.82
2018-04-15T04:33:25.230Z,1008.82
2018-04-15T04:34:00.357Z,1008.79
2018-04-15T04:34:36.143Z,1008.78
2018-04-15T04:35:11.640Z,1008.80
2018-04-15T04:35:47.292Z,1008.81
2018-04-15T04:36:22.716Z,1008.78
2018-04-15T04:36:58.026Z,1008.80
2018-04-15T04:37:33.348Z,1008.78
2018-04-15T04:38:08.518Z,1008.79
2018-04-15T04:38:43.945Z,1008.82
2018-04-15T04:39:19.310Z,1008.80
2018-04-15T04:39:54.607Z,1008.82
2018-04-15T04:40:29.977Z,1008.79
2018-04-15T04:41:05.800Z,1008.79
2018-04-15T04:41:41.049Z,1008.73
2018-04-15T04:42:16.660Z,1008.78
2018-04-15T04:42:52.313Z,1008.77
2018-04-15T04:43:27.636Z,1008.77
2018-04-15T04:44:03.079Z,1008.75
2018-04-15T04:44:38.737Z,1008.75
2018-04-15T04:45:14.242Z,1008.73
2018-04-15T04:45:49.653Z,1008.72
2018-04-15T04:46:25.714Z,1008.76
2018-04-15T04:47:01.153Z,1008.72
2018-04-15T04:47:36.505Z,1008.76
2018-04-15T04:48:11.834Z,1008.73
2018-04-15T04:48:47.052Z,1008.69
2018-04-15T04:49:22.389Z,1008.70
2018-04-15T04:49:58.145Z,1008.74
2018-04-15T04:50:33.384Z,1008.73
2018-04-15T04:51:09.098Z,1008.73
2018-04-15T04:51:44.226Z,1008.73
2018-04-15T04:52:19.766Z,1008.72
2018-04-15T04:52:55.068Z,1008.72
2018-04-15T04:53:30.642Z,1008.75
2018-04-15T04:54:06.076Z,1008.76
2018-04-15T04:54:42.752Z,1008.77
2018-04-15T04:55:18.182Z,1008.79
2018-04-15T04:55:53.662Z,1008.79
2018-04-15T04:56:29.098Z,1008.76
2018-04-15T04:57:04.674Z,1008.76
2018-04-15T04:57:40.382Z,1008.80
2018-04-15T04:58:15.937Z,1008.77
2018-04-15T04:58:51.252Z,1008.73
2018-04-15T04:59:26.472Z,1008.78
2018-04-15T05:00:01.837Z,1008.77
2018-04-15T05:00:37.809Z,1008.81
2018-04-15T05:01:13.222Z,1008.78
2018-04-15T05:01:48.462Z,1008.80
2018-04-15T05:02:23.772Z,1008.76
2018-04-15T05:03:00.636Z,1008.78
2018-04-15T05:03:35.965Z,1008.74
2018-04-15T05:04:11.402Z,1008.79
2018-04-15T05:04:46.760Z,1008.77
2018-04-15T05:05:22.340Z,1008.75
2018-04-15T05:05:57.465Z,1008.75
2018-04-15T05:06:32.688Z,1008.74
2018-04-15T05:07:08.228Z,1008.76
2018-04-15T05:07:43.754Z,1008.78
2018-04-15T05:08:18.991Z,1008.75
2018-04-15T05:08:54.450Z,1008.76
2018-04-15T05:09:29.849Z,1008.75
2018-04-15T05:10:05.205Z,1008.69
2018-04-15T05:10:41.255Z,1008.73
2018-04-15T05:11:16.531Z,1008.78
2018-04-15T05:11:51.861Z,1008.79
2018-04-15T05:12:27.210Z,1008.77
2018-04-15T05:13:02.653Z,1008.76
2018-04-15T05:13:38.084Z,1008.73
2018-04-15T05:14:13.517Z,1008.76
2018-04-15T05:14:49.173Z,1008.77
2018-04-15T05:15:24.787Z,1008.76
2018-04-15T05:16:00.024Z,1008.76
2018-04-15T05:16:35.633Z,1008.79
2018-04-15T05:17:11.213Z,1008.79
2018-04-15T05:17:46.316Z,1008.81
2018-04-15T05:18:21.669Z,1008.84
2018-04-15T05:18:57.073Z,1008.81
2018-04-15T05:19:32.409Z,1008.81
2018-04-15T05:20:07.740Z,1008.74
2018-04-15T05:20:43.295Z,1008.78
2018-04-15T05:21:18.714Z,1008.79
2018-04-15T05:21:54.027Z,1008.80
2018-04-15T05:22:29.319Z,1008.76
2018-04-15T05:23:04.651Z,1008.75
2018-04-15T05:23:40.075Z,1008.76
2018-04-15T05:24:15.424Z,1008.80
2018-04-15T05:24:50.676Z,1008.81
2018-04-15T05:25:25.817Z,1008.81
2018-04-15T05:26:00.946Z,1008.83
2018-04-15T05:26:36.495Z,1008.85
2018-04-15T05:27:12.110Z,1008.84
2018-04-15T05:27:47.850Z,1008.83
2018-04-15T05:28:23.198Z,1008.84
2018-04-15T05:28:58.629Z,1008.84
2018-04-15T05:29:34.256Z,1008.88
2018-04-15T05:30:09.720Z,1008.87
2018-04-15T05:30:45.215Z,1008.86
2018-04-15T05:31:20.733Z,1008.90
2018-04-15T05:31:56.143Z,1008.89
2018-04-15T05:32:31.388Z,1008.91
2018-04-15T05:33:06.924Z,1008.89
2018-04-15T05:33:42.350Z,1008.92
2018-04-15T05:34:17.753Z,1008.91
2018-04-15T05:34:52.986Z,1008.87
2018-04-15T05:35:28.291Z,1008.90
2018-04-15T05:36:03.534Z,1008.90
2018-04-15T05:36:39.149Z,1008.88
2018-04-15T05:37:14.604Z,1008.92
2018-04-15T05:37:50.116Z,1008.94
2018-04-15T05:38:25.765Z,1008.90
2018-04-15T05:39:01.284Z,1008.92
2018-04-15T05:39:37.023Z,1008.90
2018-04-15T05:40:12.746Z,1008.94
2018-04-15T05:40:48.317Z,1008.89
2018-04-15T05:41:23.417Z,1008.92
2018-04-15T05:41:58.778Z,1008.87
2018-04-15T05:42:34.091Z,1008.93
2018-04-15T05:43:09.321Z,1008.88
2018-04-15T05:43:44.433Z,1008.90
2018-04-15T05:44:19.771Z,1008.82
2018-04-15T05:44:55.170Z,1008.87
2018-04-15T05:45:30.531Z,1008.89
2018-04-15T05:46:05.867Z,1008.92
2018-04-15T05:46:41.010Z,1008.89
2018-04-15T05:47:16.329Z,1008.89
2018-04-15T05:47:51.784Z,1008.90
2018-04-15T05:48:27.198Z,1008.92
2018-04-15T05:49:02.635Z,1008.92
2018-04-15T05:49:38.148Z,1008.94
2018-04-15T05:50:13.546Z,1008.90
2018-04-15T05:50:48.684Z,1008.91
2018-04-15T05:51:24.268Z,1008.91
2018-04-15T05:52:00.857Z,1008.90
2018-04-15T05:52:36.204Z,1008.87
2018-04-15T05:53:11.714Z,1008.88
2018-04-15T05:53:46.875Z,1008.82
2018-04-15T05:54:21.879Z,1008.86
2018-04-15T05:54:57.229Z,1008.88
2018-04-15T05:55:32.892Z,1008.89
2018-04-15T05:56:08.206Z,1008.86
2018-04-15T05:56:43.530Z,1008.83
2018-04-15T05:57:18.780Z,1008.87
2018-04-15T05:57:54.016Z,1008.86
2018-04-15T05:58:29.242Z,1008.85
2018-04-15T05:59:04.545Z,1008.84
2018-04-15T05:59:40.085Z,1008.87
2018-04-15T06:00:15.728Z,1008.81
2018-04-15T06:00:52.068Z,1008.83
2018-04-15T06:01:27.172Z,1008.83
2018-04-15T06:02:02.599Z,1008.80
2018-04-15T06:02:38.125Z,1008.78
2018-04-15T06:03:13.478Z,1008.78
2018-04-15T06:03:48.900Z,1008.80
2018-04-15T06:04:24.553Z,1008.78
2018-04-15T06:04:59.856Z,1008.81
2018-04-15T06:05:35.421Z,1008.81
2018-04-15T06:06:10.738Z,1008.82
2018-04-15T06:06:45.976Z,1008.79
2018-04-15T06:07:21.816Z,1008.75
2018-04-15T06:07:57.155Z,1008.75
2018-04-15T06:08:32.383Z,1008.76
2018-04-15T06:09:07.828Z,1008.77
2018-04-15T06:09:43.085Z,1008.76
2018-04-15T06:10:18.348Z,1008.78
2018-04-15T06:10:53.681Z,1008.75
2018-04-15T06:11:28.924Z,1008.78
2018-04-15T06:12:04.033Z,1008.76
2018-04-15T06:12:39.400Z,1008.77
2018-04-15T06:13:14.593Z,1008.76
2018-04-15T06:13:50.322Z,1008.79
2018-04-15T06:14:25.422Z,1008.81
2018-04-15T06:15:00.983Z,1008.78
2018-04-15T06:15:36.207Z,1008.77
2018-04-15T06:16:11.526Z,1008.77
2018-04-15T06:16:46.866Z,1008.74
2018-04-15T06:17:22.119Z,1008.72
2018-04-15T06:17:57.636Z,1008.70
2018-04-15T06:18:32.902Z,1008.74
2018-04-15T06:19:08.230Z,1008.70
2018-04-15T06:19:43.967Z,1008.68
2018-04-15T06:20:19.386Z,1008.68
2018-04-15T06:20:54.545Z,1008.66
2018-04-15T06:21:30.055Z,1008.67
2018-04-15T06:22:05.400Z,1008.67
2018-04-15T06:22:40.758Z,1008.67
2018-04-15T06:23:16.313Z,1008.68
2018-04-15T06:23:51.524Z,1008.69
2018-04-15T06:24:26.970Z,1008.65
2018-04-15T06:25:02.378Z,1008.67
2018-04-15T06:25:38.199Z,1008.67
2018-04-15T06:26:13.809Z,1008.65
2018-04-15T06:26:49.470Z,1008.66
2018-04-15T06:27:24.993Z,1008.63
2018-04-15T06:28:00.403Z,1008.63
2018-04-15T06:28:35.729Z,1008.59
2018-04-15T06:29:11.077Z,1008.59
2018-04-15T06:29:48.010Z,1008.59
2018-04-15T06:30:23.245Z,1008.61
2018-04-15T06:30:58.647Z,1008.57
2018-04-15T06:31:34.695Z,1008.58
2018-04-15T06:32:10.098Z,1008.57
2018-04-15T06:32:45.630Z,1008.55
2018-04-15T06:33:21.245Z,1008.53
2018-04-15T06:33:56.899Z,1008.54
2018-04-15T06:34:33.136Z,1008.51
2018-04-15T06:35:08.478Z,1008.47
2018-04-15T06:35:47.800Z,1008.48
2018-04-15T06:36:25.644Z,1008.47
2018-04-15T06:37:00.946Z,1008.46
2018-04-15T06:37:40.165Z,1008.48
2018-04-15T06:38:15.480Z,1008.49
2018-04-15T06:38:50.798Z,1008.44
2018-04-15T06:39:26.609Z,1008.43
2018-04-15T06:40:01.975Z,1008.43
2018-04-15T06:40:38.078Z,1008.41
2018-04-15T06:41:13.642Z,1008.44
2018-04-15T06:41:49.477Z,1008.41
2018-04-15T06:42:25.137Z,1008.40
2018-04-15T06:43:00.657Z,1008.38
2018-04-15T06:43:36.090Z,1008.35
2018-04-15T06:44:11.315Z,1008.38
2018-04-15T06:44:46.550Z,1008.35
2018-04-15T06:45:21.890Z,1008.31
2018-04-15T06:45:57.289Z,1008.30
2018-04-15T06:46:33.685Z,1008.34
2018-04-15T06:47:10.035Z,1008.31
2018-04-15T06:47:48.534Z,1008.33
2018-04-15T06:48:23.952Z,1008.28
2018-04-15T06:48:59.255Z,1008.30
2018-04-15T06:49:34.816Z,1008.31
2018-04-15T06:50:10.203Z,1008.31
2018-04-15T06:50:46.471Z,1008.32
2018-04-15T06:51:21.949Z,1008.31
2018-04-15T06:51:56.985Z,1008.32
2018-04-15T06:52:32.478Z,1008.30
2018-04-15T06:53:07.798Z,1008.33
2018-04-15T06:53:43.299Z,1008.34
2018-04-15T06:54:18.761Z,1008.30
2018-04-15T06:54:54.381Z,1008.33
2018-04-15T06:55:29.824Z,1008.26
2018-04-15T06:56:05.266Z,1008.31
2018-04-15T06:56:40.509Z,1008.30
2018-04-15T06:57:16.207Z,1008.33
2018-04-15T06:57:51.738Z,1008.27
2018-04-15T06:58:26.844Z,1008.27
2018-04-15T06:59:02.672Z,1008.28
2018-04-15T06:59:37.968Z,1008.29
2018-04-15T07:00:13.512Z,1008.28
2018-04-15T07:00:52.849Z,1008.28
2018-04-15T07:01:28.143Z,1008.23
2018-04-15T07:02:03.649Z,1008.26
2018-04-15T07:02:39.230Z,1008.25
2018-04-15T07:03:14.453Z,1008.26
2018-04-15T07:03:49.762Z,1008.26
2018-04-15T07:04:25.284Z,1008.23
2018-04-15T07:05:00.754Z,1008.19
2018-04-15T07:05:36.960Z,1008.21
2018-04-15T07:06:12.225Z,1008.19
2018-04-15T07:06:47.779Z,1008.18
2018-04-15T07:07:23.477Z,1008.19
2018-04-15T07:07:59.298Z,1008.19
2018-04-15T07:08:34.506Z,1008.17
2018-04-15T07:09:09.743Z,1008.16
2018-04-15T07:09:45.313Z,1008.16
2018-04-15T07:10:20.438Z,1008.16
2018-04-15T07:10:55.779Z,1008.14